Terminal Aerodrome Forecast
Issued by NWS

Home | Current Version | Previous Version | Text Only | Print | Product List | Glossary On
Versions: 1 2 3 4 5 6 7 8 9 10 11 12 13 14 15 16 17 18 19 20 21 22 23
136
FTUS45 KRIW 272327
TAFJAC
TAF
KJAC 272327Z 2800/2824 VRB06KT P6SM VCSH SCT030 BKN040
      TEMPO 2800/2803 3SM -SHSN BKN020
     FM280500 35007KT 3SM -SN SCT012 BKN025
     FM281400 01008KT P6SM VCSH SCT025 BKN035
      AMD LTD TO CLD VIS AND WIND=

USA.gov is the U.S. government's official web portal to all federal, state and local government web resources and services.